sensor_id;sensor_type;location;lat;lon;timestamp;P1;durP1;ratioP1;P2;durP2;ratioP2
29848;SDS011;16728;50.832;5.590;2023-04-25T00:01:41;15.55;;;5.00;;
29848;SDS011;16728;50.832;5.590;2023-04-25T00:04:43;12.73;;;5.00;;
29848;SDS011;16728;50.832;5.590;2023-04-25T00:07:46;17.48;;;5.57;;
29848;SDS011;16728;50.832;5.590;2023-04-25T00:10:48;12.45;;;5.05;;
29848;SDS011;16728;50.832;5.590;2023-04-25T00:13:50;12.73;;;4.95;;
29848;SDS011;16728;50.832;5.590;2023-04-25T00:16:53;15.63;;;5.47;;
29848;SDS011;16728;50.832;5.590;2023-04-25T00:19:55;12.48;;;5.18;;
29848;SDS011;16728;50.832;5.590;2023-04-25T00:22:57;13.02;;;5.30;;
29848;SDS011;16728;50.832;5.590;2023-04-25T00:25:59;16.70;;;5.03;;
29848;SDS011;16728;50.832;5.590;2023-04-25T00:32:04;14.32;;;5.13;;
29848;SDS011;16728;50.832;5.590;2023-04-25T00:35:06;11.30;;;5.10;;
29848;SDS011;16728;50.832;5.590;2023-04-25T00:38:08;15.82;;;4.60;;
29848;SDS011;16728;50.832;5.590;2023-04-25T00:41:10;16.83;;;6.60;;
29848;SDS011;16728;50.832;5.590;2023-04-25T00:44:13;13.40;;;5.33;;
29848;SDS011;16728;50.832;5.590;2023-04-25T00:47:18;14.73;;;4.55;;
29848;SDS011;16728;50.832;5.590;2023-04-25T00:50:20;19.80;;;5.43;;
29848;SDS011;16728;50.832;5.590;2023-04-25T00:53:23;12.80;;;4.95;;
29848;SDS011;16728;50.832;5.590;2023-04-25T00:56:26;12.93;;;5.38;;
29848;SDS011;16728;50.832;5.590;2023-04-25T00:59:33;18.13;;;5.18;;
29848;SDS011;16728;50.832;5.590;2023-04-25T01:02:37;15.05;;;5.30;;
29848;SDS011;16728;50.832;5.590;2023-04-25T01:05:40;15.75;;;4.70;;
29848;SDS011;16728;50.832;5.590;2023-04-25T01:11:45;16.70;;;5.60;;
29848;SDS011;16728;50.832;5.590;2023-04-25T01:14:47;19.42;;;5.45;;
29848;SDS011;16728;50.832;5.590;2023-04-25T01:17:49;12.43;;;4.30;;
29848;SDS011;16728;50.832;5.590;2023-04-25T01:20:51;20.65;;;5.60;;
29848;SDS011;16728;50.832;5.590;2023-04-25T01:23:54;19.55;;;5.47;;
29848;SDS011;16728;50.832;5.590;2023-04-25T01:26:57;15.07;;;5.10;;
29848;SDS011;16728;50.832;5.590;2023-04-25T01:30:03;16.02;;;5.03;;
29848;SDS011;16728;50.832;5.590;2023-04-25T01:33:07;10.10;;;5.22;;
29848;SDS011;16728;50.832;5.590;2023-04-25T01:36:10;14.82;;;4.97;;
29848;SDS011;16728;50.832;5.590;2023-04-25T01:39:12;12.18;;;4.53;;
29848;SDS011;16728;50.832;5.590;2023-04-25T01:42:14;16.17;;;4.97;;
29848;SDS011;16728;50.832;5.590;2023-04-25T01:45:16;19.58;;;5.30;;
29848;SDS011;16728;50.832;5.590;2023-04-25T01:48:19;13.90;;;4.80;;
29848;SDS011;16728;50.832;5.590;2023-04-25T01:51:20;12.18;;;4.78;;
29848;SDS011;16728;50.832;5.590;2023-04-25T01:54:23;11.93;;;4.13;;
29848;SDS011;16728;50.832;5.590;2023-04-25T01:57:25;15.32;;;5.68;;
29848;SDS011;16728;50.832;5.590;2023-04-25T02:00:29;14.82;;;5.40;;
29848;SDS011;16728;50.832;5.590;2023-04-25T02:03:40;19.67;;;5.25;;
29848;SDS011;16728;50.832;5.590;2023-04-25T02:06:42;16.63;;;5.82;;
29848;SDS011;16728;50.832;5.590;2023-04-25T02:09:44;17.95;;;5.57;;
29848;SDS011;16728;50.832;5.590;2023-04-25T02:12:46;16.95;;;5.50;;
29848;SDS011;16728;50.832;5.590;2023-04-25T02:15:48;12.82;;;5.10;;
29848;SDS011;16728;50.832;5.590;2023-04-25T02:18:51;16.70;;;5.40;;
29848;SDS011;16728;50.832;5.590;2023-04-25T02:21:54;12.65;;;5.55;;
29848;SDS011;16728;50.832;5.590;2023-04-25T02:24:56;18.67;;;5.25;;
29848;SDS011;16728;50.832;5.590;2023-04-25T02:27:58;14.63;;;5.00;;
29848;SDS011;16728;50.832;5.590;2023-04-25T02:31:00;11.57;;;4.85;;
29848;SDS011;16728;50.832;5.590;2023-04-25T02:34:01;16.30;;;4.88;;
29848;SDS011;16728;50.832;5.590;2023-04-25T02:37:08;12.57;;;5.70;;
29848;SDS011;16728;50.832;5.590;2023-04-25T02:40:11;16.02;;;5.75;;
29848;SDS011;16728;50.832;5.590;2023-04-25T02:43:14;16.08;;;6.28;;
29848;SDS011;16728;50.832;5.590;2023-04-25T02:46:17;11.18;;;5.28;;
29848;SDS011;16728;50.832;5.590;2023-04-25T02:49:38;13.82;;;5.35;;
29848;SDS011;16728;50.832;5.590;2023-04-25T02:52:40;19.00;;;6.78;;
29848;SDS011;16728;50.832;5.590;2023-04-25T02:55:46;20.33;;;7.05;;
29848;SDS011;16728;50.832;5.590;2023-04-25T02:58:48;12.15;;;5.82;;
29848;SDS011;16728;50.832;5.590;2023-04-25T03:01:52;17.30;;;6.15;;
29848;SDS011;16728;50.832;5.590;2023-04-25T03:04:56;17.95;;;6.47;;
29848;SDS011;16728;50.832;5.590;2023-04-25T03:07:59;17.58;;;6.10;;
29848;SDS011;16728;50.832;5.590;2023-04-25T03:11:01;17.80;;;6.03;;
29848;SDS011;16728;50.832;5.590;2023-04-25T03:14:03;12.98;;;5.80;;
29848;SDS011;16728;50.832;5.590;2023-04-25T03:17:05;18.98;;;6.22;;
29848;SDS011;16728;50.832;5.590;2023-04-25T03:20:07;17.63;;;5.78;;
29848;SDS011;16728;50.832;5.590;2023-04-25T03:23:10;17.00;;;5.85;;
29848;SDS011;16728;50.832;5.590;2023-04-25T03:26:11;21.15;;;6.38;;
29848;SDS011;16728;50.832;5.590;2023-04-25T03:29:13;16.38;;;6.07;;
29848;SDS011;16728;50.832;5.590;2023-04-25T03:32:15;19.08;;;5.88;;
29848;SDS011;16728;50.832;5.590;2023-04-25T03:35:17;16.17;;;5.65;;
29848;SDS011;16728;50.832;5.590;2023-04-25T03:38:19;17.17;;;6.07;;
29848;SDS011;16728;50.832;5.590;2023-04-25T03:41:21;15.90;;;6.47;;
29848;SDS011;16728;50.832;5.590;2023-04-25T03:44:23;19.52;;;7.45;;
29848;SDS011;16728;50.832;5.590;2023-04-25T03:47:26;20.30;;;6.40;;
29848;SDS011;16728;50.832;5.590;2023-04-25T03:50:28;25.08;;;7.78;;
29848;SDS011;16728;50.832;5.590;2023-04-25T03:53:30;16.58;;;6.50;;
29848;SDS011;16728;50.832;5.590;2023-04-25T03:56:32;13.02;;;5.75;;
29848;SDS011;16728;50.832;5.590;2023-04-25T03:59:34;19.10;;;6.97;;
29848;SDS011;16728;50.832;5.590;2023-04-25T04:02:37;17.92;;;6.05;;
29848;SDS011;16728;50.832;5.590;2023-04-25T04:05:41;19.98;;;6.35;;
29848;SDS011;16728;50.832;5.590;2023-04-25T04:08:45;21.52;;;7.07;;
29848;SDS011;16728;50.832;5.590;2023-04-25T04:11:46;18.58;;;6.15;;
29848;SDS011;16728;50.832;5.590;2023-04-25T04:14:48;17.27;;;5.93;;
29848;SDS011;16728;50.832;5.590;2023-04-25T04:17:50;17.17;;;6.55;;
29848;SDS011;16728;50.832;5.590;2023-04-25T04:20:53;15.13;;;5.82;;
29848;SDS011;16728;50.832;5.590;2023-04-25T04:23:55;20.33;;;7.47;;
29848;SDS011;16728;50.832;5.590;2023-04-25T04:26:59;13.82;;;5.30;;
29848;SDS011;16728;50.832;5.590;2023-04-25T04:30:01;23.00;;;6.47;;
29848;SDS011;16728;50.832;5.590;2023-04-25T04:33:04;16.75;;;6.43;;
29848;SDS011;16728;50.832;5.590;2023-04-25T04:36:07;18.05;;;6.50;;
29848;SDS011;16728;50.832;5.590;2023-04-25T04:39:09;18.80;;;7.60;;
29848;SDS011;16728;50.832;5.590;2023-04-25T04:42:11;19.70;;;7.05;;
29848;SDS011;16728;50.832;5.590;2023-04-25T04:45:14;20.67;;;7.57;;
29848;SDS011;16728;50.832;5.590;2023-04-25T04:48:17;20.75;;;6.53;;
29848;SDS011;16728;50.832;5.590;2023-04-25T04:51:21;20.50;;;6.78;;
29848;SDS011;16728;50.832;5.590;2023-04-25T04:54:23;20.63;;;6.90;;
29848;SDS011;16728;50.832;5.590;2023-04-25T04:57:27;20.27;;;6.55;;
29848;SDS011;16728;50.832;5.590;2023-04-25T05:00:29;19.83;;;6.72;;
29848;SDS011;16728;50.832;5.590;2023-04-25T05:03:31;24.25;;;6.18;;
29848;SDS011;16728;50.832;5.590;2023-04-25T05:06:36;21.55;;;5.82;;
29848;SDS011;16728;50.832;5.590;2023-04-25T05:09:38;16.48;;;6.07;;
29848;SDS011;16728;50.832;5.590;2023-04-25T05:12:40;17.15;;;6.30;;
29848;SDS011;16728;50.832;5.590;2023-04-25T05:15:42;19.08;;;5.90;;
29848;SDS011;16728;50.832;5.590;2023-04-25T05:18:44;14.38;;;5.38;;
29848;SDS011;16728;50.832;5.590;2023-04-25T05:21:45;24.65;;;7.00;;
29848;SDS011;16728;50.832;5.590;2023-04-25T05:24:47;22.27;;;6.80;;
29848;SDS011;16728;50.832;5.590;2023-04-25T05:27:53;21.17;;;6.30;;
29848;SDS011;16728;50.832;5.590;2023-04-25T05:30:54;17.35;;;6.63;;
29848;SDS011;16728;50.832;5.590;2023-04-25T05:33:57;21.03;;;6.17;;
29848;SDS011;16728;50.832;5.590;2023-04-25T05:36:59;17.35;;;7.03;;
29848;SDS011;16728;50.832;5.590;2023-04-25T05:40:02;19.02;;;6.25;;
29848;SDS011;16728;50.832;5.590;2023-04-25T05:43:07;19.63;;;7.82;;
29848;SDS011;16728;50.832;5.590;2023-04-25T05:46:15;27.45;;;7.60;;
29848;SDS011;16728;50.832;5.590;2023-04-25T05:49:18;25.88;;;8.20;;
29848;SDS011;16728;50.832;5.590;2023-04-25T05:52:20;21.15;;;6.93;;
29848;SDS011;16728;50.832;5.590;2023-04-25T05:55:22;20.20;;;7.18;;
29848;SDS011;16728;50.832;5.590;2023-04-25T05:58:24;19.30;;;7.75;;
29848;SDS011;16728;50.832;5.590;2023-04-25T06:01:26;19.08;;;7.10;;
29848;SDS011;16728;50.832;5.590;2023-04-25T06:04:32;15.43;;;7.15;;
29848;SDS011;16728;50.832;5.590;2023-04-25T06:07:35;19.20;;;7.85;;
29848;SDS011;16728;50.832;5.590;2023-04-25T06:10:37;24.38;;;7.72;;
29848;SDS011;16728;50.832;5.590;2023-04-25T06:13:39;20.45;;;7.10;;
29848;SDS011;16728;50.832;5.590;2023-04-25T06:16:41;18.42;;;6.75;;
29848;SDS011;16728;50.832;5.590;2023-04-25T06:19:43;21.70;;;7.28;;
29848;SDS011;16728;50.832;5.590;2023-04-25T06:22:45;22.85;;;7.50;;
29848;SDS011;16728;50.832;5.590;2023-04-25T06:25:47;20.63;;;6.15;;
29848;SDS011;16728;50.832;5.590;2023-04-25T06:28:50;14.63;;;6.07;;
29848;SDS011;16728;50.832;5.590;2023-04-25T06:31:51;19.45;;;5.65;;
29848;SDS011;16728;50.832;5.590;2023-04-25T06:34:54;19.20;;;6.47;;
29848;SDS011;16728;50.832;5.590;2023-04-25T06:37:56;14.57;;;5.13;;
29848;SDS011;16728;50.832;5.590;2023-04-25T06:44:01;14.55;;;4.43;;
29848;SDS011;16728;50.832;5.590;2023-04-25T06:47:08;16.80;;;4.20;;
29848;SDS011;16728;50.832;5.590;2023-04-25T06:50:10;16.98;;;4.35;;
29848;SDS011;16728;50.832;5.590;2023-04-25T06:53:17;12.20;;;4.13;;
29848;SDS011;16728;50.832;5.590;2023-04-25T06:56:19;16.50;;;4.97;;
29848;SDS011;16728;50.832;5.590;2023-04-25T06:59:22;13.95;;;4.82;;
29848;SDS011;16728;50.832;5.590;2023-04-25T07:02:24;15.02;;;5.05;;
29848;SDS011;16728;50.832;5.590;2023-04-25T07:05:27;18.23;;;5.60;;
29848;SDS011;16728;50.832;5.590;2023-04-25T07:08:29;21.85;;;7.00;;
29848;SDS011;16728;50.832;5.590;2023-04-25T07:11:36;18.27;;;7.22;;
29848;SDS011;16728;50.832;5.590;2023-04-25T07:14:38;21.58;;;6.50;;
29848;SDS011;16728;50.832;5.590;2023-04-25T07:17:41;16.52;;;6.57;;
29848;SDS011;16728;50.832;5.590;2023-04-25T07:20:43;17.38;;;6.43;;
29848;SDS011;16728;50.832;5.590;2023-04-25T07:23:49;19.48;;;5.65;;
29848;SDS011;16728;50.832;5.590;2023-04-25T07:26:52;14.20;;;5.07;;
29848;SDS011;16728;50.832;5.590;2023-04-25T07:29:53;19.55;;;6.07;;
29848;SDS011;16728;50.832;5.590;2023-04-25T07:32:55;17.55;;;5.32;;
29848;SDS011;16728;50.832;5.590;2023-04-25T07:35:57;18.60;;;4.80;;
29848;SDS011;16728;50.832;5.590;2023-04-25T07:38:59;16.95;;;4.75;;
29848;SDS011;16728;50.832;5.590;2023-04-25T07:42:01;12.50;;;4.53;;
29848;SDS011;16728;50.832;5.590;2023-04-25T07:45:03;14.52;;;4.82;;
29848;SDS011;16728;50.832;5.590;2023-04-25T07:48:05;16.30;;;5.03;;
29848;SDS011;16728;50.832;5.590;2023-04-25T07:51:07;17.80;;;5.00;;
29848;SDS011;16728;50.832;5.590;2023-04-25T07:54:12;25.08;;;5.55;;
29848;SDS011;16728;50.832;5.590;2023-04-25T07:57:14;16.27;;;4.50;;
29848;SDS011;16728;50.832;5.590;2023-04-25T08:00:18;18.17;;;3.95;;
29848;SDS011;16728;50.832;5.590;2023-04-25T08:03:22;12.55;;;4.65;;
29848;SDS011;16728;50.832;5.590;2023-04-25T08:06:24;13.98;;;5.22;;
29848;SDS011;16728;50.832;5.590;2023-04-25T08:09:27;16.57;;;4.97;;
29848;SDS011;16728;50.832;5.590;2023-04-25T08:12:29;26.10;;;4.60;;
29848;SDS011;16728;50.832;5.590;2023-04-25T08:15:31;16.95;;;4.82;;
29848;SDS011;16728;50.832;5.590;2023-04-25T08:18:34;16.33;;;4.35;;
29848;SDS011;16728;50.832;5.590;2023-04-25T08:21:36;14.63;;;4.47;;
29848;SDS011;16728;50.832;5.590;2023-04-25T08:24:39;17.80;;;4.95;;
29848;SDS011;16728;50.832;5.590;2023-04-25T08:27:41;17.60;;;5.07;;
29848;SDS011;16728;50.832;5.590;2023-04-25T08:30:43;16.52;;;4.57;;
29848;SDS011;16728;50.832;5.590;2023-04-25T08:33:44;13.57;;;4.07;;
29848;SDS011;16728;50.832;5.590;2023-04-25T08:36:46;14.45;;;3.90;;
29848;SDS011;16728;50.832;5.590;2023-04-25T08:39:49;14.63;;;4.30;;
29848;SDS011;16728;50.832;5.590;2023-04-25T08:42:54;12.00;;;3.50;;
29848;SDS011;16728;50.832;5.590;2023-04-25T08:45:58;21.48;;;4.28;;
29848;SDS011;16728;50.832;5.590;2023-04-25T08:49:02;10.27;;;3.90;;
29848;SDS011;16728;50.832;5.590;2023-04-25T08:52:04;15.85;;;3.53;;
29848;SDS011;16728;50.832;5.590;2023-04-25T08:55:07;19.90;;;4.20;;
29848;SDS011;16728;50.832;5.590;2023-04-25T08:58:10;11.75;;;3.30;;
29848;SDS011;16728;50.832;5.590;2023-04-25T09:01:17;11.70;;;3.78;;
29848;SDS011;16728;50.832;5.590;2023-04-25T09:04:19;10.93;;;3.30;;
29848;SDS011;16728;50.832;5.590;2023-04-25T09:07:24;18.50;;;4.43;;
29848;SDS011;16728;50.832;5.590;2023-04-25T09:10:27;17.05;;;4.22;;
29848;SDS011;16728;50.832;5.590;2023-04-25T09:13:30;11.52;;;3.47;;
29848;SDS011;16728;50.832;5.590;2023-04-25T09:16:31;6.53;;;2.90;;
29848;SDS011;16728;50.832;5.590;2023-04-25T09:19:37;10.13;;;3.70;;
29848;SDS011;16728;50.832;5.590;2023-04-25T09:22:42;12.20;;;3.10;;
29848;SDS011;16728;50.832;5.590;2023-04-25T09:25:50;11.88;;;3.33;;
29848;SDS011;16728;50.832;5.590;2023-04-25T09:29:14;14.77;;;4.20;;
29848;SDS011;16728;50.832;5.590;2023-04-25T09:32:23;17.37;;;4.80;;
29848;SDS011;16728;50.832;5.590;2023-04-25T09:35:26;9.77;;;2.90;;
29848;SDS011;16728;50.832;5.590;2023-04-25T09:38:29;9.00;;;2.80;;
29848;SDS011;16728;50.832;5.590;2023-04-25T09:41:33;6.03;;;2.97;;
29848;SDS011;16728;50.832;5.590;2023-04-25T09:44:41;8.75;;;3.33;;
29848;SDS011;16728;50.832;5.590;2023-04-25T09:47:47;10.70;;;2.85;;
29848;SDS011;16728;50.832;5.590;2023-04-25T09:54:09;10.13;;;3.38;;
29848;SDS011;16728;50.832;5.590;2023-04-25T09:57:13;10.25;;;3.17;;
29848;SDS011;16728;50.832;5.590;2023-04-25T10:00:22;12.38;;;4.25;;
29848;SDS011;16728;50.832;5.590;2023-04-25T10:03:26;9.35;;;3.80;;
29848;SDS011;16728;50.832;5.590;2023-04-25T10:06:34;10.65;;;4.38;;
29848;SDS011;16728;50.832;5.590;2023-04-25T10:09:39;13.30;;;4.90;;
29848;SDS011;16728;50.832;5.590;2023-04-25T10:12:41;9.93;;;3.55;;
29848;SDS011;16728;50.832;5.590;2023-04-25T10:15:45;11.32;;;4.13;;
29848;SDS011;16728;50.832;5.590;2023-04-25T10:18:48;8.50;;;3.40;;
29848;SDS011;16728;50.832;5.590;2023-04-25T10:25:10;11.80;;;3.33;;
29848;SDS011;16728;50.832;5.590;2023-04-25T10:28:12;10.52;;;4.03;;
29848;SDS011;16728;50.832;5.590;2023-04-25T10:31:15;10.68;;;3.75;;
29848;SDS011;16728;50.832;5.590;2023-04-25T10:34:19;8.70;;;3.40;;
29848;SDS011;16728;50.832;5.590;2023-04-25T10:37:26;8.57;;;2.88;;
29848;SDS011;16728;50.832;5.590;2023-04-25T10:40:29;9.88;;;3.58;;
29848;SDS011;16728;50.832;5.590;2023-04-25T10:43:33;7.93;;;2.67;;
29848;SDS011;16728;50.832;5.590;2023-04-25T10:46:42;11.98;;;3.70;;
29848;SDS011;16728;50.832;5.590;2023-04-25T10:49:47;11.25;;;3.50;;
29848;SDS011;16728;50.832;5.590;2023-04-25T10:52:53;13.38;;;3.33;;
29848;SDS011;16728;50.832;5.590;2023-04-25T10:55:55;7.47;;;3.00;;
29848;SDS011;16728;50.832;5.590;2023-04-25T11:02:11;6.95;;;3.17;;
29848;SDS011;16728;50.832;5.590;2023-04-25T11:05:22;9.88;;;3.10;;
29848;SDS011;16728;50.832;5.590;2023-04-25T11:09:08;12.13;;;5.00;;
29848;SDS011;16728;50.832;5.590;2023-04-25T11:12:02;21.48;;;6.70;;
29848;SDS011;16728;50.832;5.590;2023-04-25T11:15:05;9.50;;;2.47;;
29848;SDS011;16728;50.832;5.590;2023-04-25T11:18:09;7.38;;;2.42;;
29848;SDS011;16728;50.832;5.590;2023-04-25T11:21:17;13.68;;;6.65;;
29848;SDS011;16728;50.832;5.590;2023-04-25T11:24:25;7.85;;;2.33;;
29848;SDS011;16728;50.832;5.590;2023-04-25T11:27:31;7.82;;;2.47;;
29848;SDS011;16728;50.832;5.590;2023-04-25T11:30:33;9.13;;;2.92;;
29848;SDS011;16728;50.832;5.590;2023-04-25T11:33:35;4.90;;;2.35;;
29848;SDS011;16728;50.832;5.590;2023-04-25T11:36:38;8.10;;;2.75;;
29848;SDS011;16728;50.832;5.590;2023-04-25T11:39:44;8.90;;;2.78;;
29848;SDS011;16728;50.832;5.590;2023-04-25T11:42:50;7.80;;;2.67;;
29848;SDS011;16728;50.832;5.590;2023-04-25T11:45:55;7.03;;;2.45;;
29848;SDS011;16728;50.832;5.590;2023-04-25T11:48:58;5.70;;;3.15;;
29848;SDS011;16728;50.832;5.590;2023-04-25T11:52:01;5.68;;;2.03;;
29848;SDS011;16728;50.832;5.590;2023-04-25T11:55:10;6.10;;;2.78;;
29848;SDS011;16728;50.832;5.590;2023-04-25T11:58:15;5.75;;;2.00;;
29848;SDS011;16728;50.832;5.590;2023-04-25T12:01:27;6.95;;;2.47;;
29848;SDS011;16728;50.832;5.590;2023-04-25T12:04:52;6.43;;;2.72;;
29848;SDS011;16728;50.832;5.590;2023-04-25T12:07:55;29.00;;;15.32;;
29848;SDS011;16728;50.832;5.590;2023-04-25T12:10:57;10.88;;;3.30;;
29848;SDS011;16728;50.832;5.590;2023-04-25T12:14:03;6.05;;;2.30;;
29848;SDS011;16728;50.832;5.590;2023-04-25T12:17:06;6.30;;;2.30;;
29848;SDS011;16728;50.832;5.590;2023-04-25T12:20:10;8.98;;;2.55;;
29848;SDS011;16728;50.832;5.590;2023-04-25T12:23:14;39.33;;;15.02;;
29848;SDS011;16728;50.832;5.590;2023-04-25T12:26:17;6.88;;;3.78;;
29848;SDS011;16728;50.832;5.590;2023-04-25T12:29:22;7.68;;;1.90;;
29848;SDS011;16728;50.832;5.590;2023-04-25T12:32:31;4.47;;;2.13;;
29848;SDS011;16728;50.832;5.590;2023-04-25T12:35:34;5.25;;;1.98;;
29848;SDS011;16728;50.832;5.590;2023-04-25T12:38:38;5.18;;;1.95;;
29848;SDS011;16728;50.832;5.590;2023-04-25T12:41:41;6.13;;;1.67;;
29848;SDS011;16728;50.832;5.590;2023-04-25T12:44:46;7.20;;;2.10;;
29848;SDS011;16728;50.832;5.590;2023-04-25T12:47:48;5.68;;;2.20;;
29848;SDS011;16728;50.832;5.590;2023-04-25T12:50:50;4.35;;;1.98;;
29848;SDS011;16728;50.832;5.590;2023-04-25T12:53:53;5.93;;;2.13;;
29848;SDS011;16728;50.832;5.590;2023-04-25T12:59:58;6.07;;;1.98;;
29848;SDS011;16728;50.832;5.590;2023-04-25T13:03:01;6.97;;;2.15;;
29848;SDS011;16728;50.832;5.590;2023-04-25T13:06:04;9.48;;;3.17;;
29848;SDS011;16728;50.832;5.590;2023-04-25T13:09:09;5.75;;;2.20;;
29848;SDS011;16728;50.832;5.590;2023-04-25T13:12:12;8.10;;;2.70;;
29848;SDS011;16728;50.832;5.590;2023-04-25T13:15:15;4.80;;;2.20;;
29848;SDS011;16728;50.832;5.590;2023-04-25T13:18:17;5.80;;;2.13;;
29848;SDS011;16728;50.832;5.590;2023-04-25T13:21:20;4.97;;;2.20;;
29848;SDS011;16728;50.832;5.590;2023-04-25T13:24:22;7.07;;;2.30;;
29848;SDS011;16728;50.832;5.590;2023-04-25T13:27:24;6.38;;;2.05;;
29848;SDS011;16728;50.832;5.590;2023-04-25T13:30:26;5.53;;;2.00;;
29848;SDS011;16728;50.832;5.590;2023-04-25T13:33:28;4.90;;;2.05;;
29848;SDS011;16728;50.832;5.590;2023-04-25T13:36:30;6.05;;;2.00;;
29848;SDS011;16728;50.832;5.590;2023-04-25T13:39:35;4.90;;;1.90;;
29848;SDS011;16728;50.832;5.590;2023-04-25T13:42:37;6.30;;;2.35;;
29848;SDS011;16728;50.832;5.590;2023-04-25T13:45:40;5.57;;;2.05;;
29848;SDS011;16728;50.832;5.590;2023-04-25T13:48:42;4.00;;;2.30;;
29848;SDS011;16728;50.832;5.590;2023-04-25T13:51:47;6.78;;;2.00;;
29848;SDS011;16728;50.832;5.590;2023-04-25T13:54:49;6.45;;;2.60;;
29848;SDS011;16728;50.832;5.590;2023-04-25T13:57:52;5.40;;;2.25;;
29848;SDS011;16728;50.832;5.590;2023-04-25T14:00:54;6.07;;;2.20;;
29848;SDS011;16728;50.832;5.590;2023-04-25T14:07:31;6.53;;;1.73;;
29848;SDS011;16728;50.832;5.590;2023-04-25T14:10:34;5.22;;;2.00;;
29848;SDS011;16728;50.832;5.590;2023-04-25T14:13:36;7.45;;;2.45;;
29848;SDS011;16728;50.832;5.590;2023-04-25T14:16:43;5.63;;;2.00;;
29848;SDS011;16728;50.832;5.590;2023-04-25T14:19:45;3.80;;;1.90;;
29848;SDS011;16728;50.832;5.590;2023-04-25T14:22:49;8.48;;;2.30;;
29848;SDS011;16728;50.832;5.590;2023-04-25T14:25:53;6.53;;;2.17;;
29848;SDS011;16728;50.832;5.590;2023-04-25T14:28:56;3.55;;;1.70;;
29848;SDS011;16728;50.832;5.590;2023-04-25T14:31:57;4.03;;;2.38;;
29848;SDS011;16728;50.832;5.590;2023-04-25T14:35:00;8.25;;;2.17;;
29848;SDS011;16728;50.832;5.590;2023-04-25T14:38:02;4.00;;;2.25;;
29848;SDS011;16728;50.832;5.590;2023-04-25T14:41:04;5.10;;;2.22;;
29848;SDS011;16728;50.832;5.590;2023-04-25T14:44:05;7.13;;;2.35;;
29848;SDS011;16728;50.832;5.590;2023-04-25T14:47:14;8.68;;;1.80;;
29848;SDS011;16728;50.832;5.590;2023-04-25T14:50:17;6.38;;;2.33;;
29848;SDS011;16728;50.832;5.590;2023-04-25T14:53:19;6.73;;;2.07;;
29848;SDS011;16728;50.832;5.590;2023-04-25T14:56:21;6.15;;;2.20;;
29848;SDS011;16728;50.832;5.590;2023-04-25T14:59:23;4.07;;;2.20;;
29848;SDS011;16728;50.832;5.590;2023-04-25T15:02:25;8.07;;;2.42;;
29848;SDS011;16728;50.832;5.590;2023-04-25T15:05:29;5.13;;;1.70;;
29848;SDS011;16728;50.832;5.590;2023-04-25T15:08:38;6.25;;;1.90;;
29848;SDS011;16728;50.832;5.590;2023-04-25T15:11:39;5.32;;;2.00;;
29848;SDS011;16728;50.832;5.590;2023-04-25T15:14:42;3.37;;;1.70;;
29848;SDS011;16728;50.832;5.590;2023-04-25T15:17:44;5.15;;;2.00;;
29848;SDS011;16728;50.832;5.590;2023-04-25T15:20:46;5.65;;;1.92;;
29848;SDS011;16728;50.832;5.590;2023-04-25T15:23:49;5.13;;;2.03;;
29848;SDS011;16728;50.832;5.590;2023-04-25T15:26:51;5.40;;;2.17;;
29848;SDS011;16728;50.832;5.590;2023-04-25T15:29:53;4.63;;;2.03;;
29848;SDS011;16728;50.832;5.590;2023-04-25T15:32:55;8.80;;;2.22;;
29848;SDS011;16728;50.832;5.590;2023-04-25T15:35:57;4.25;;;2.00;;
29848;SDS011;16728;50.832;5.590;2023-04-25T15:38:59;4.32;;;2.20;;
29848;SDS011;16728;50.832;5.590;2023-04-25T15:42:01;4.05;;;2.25;;
29848;SDS011;16728;50.832;5.590;2023-04-25T15:45:05;4.25;;;1.85;;
29848;SDS011;16728;50.832;5.590;2023-04-25T15:48:10;5.95;;;1.88;;
29848;SDS011;16728;50.832;5.590;2023-04-25T15:51:12;3.42;;;1.45;;
29848;SDS011;16728;50.832;5.590;2023-04-25T15:54:14;7.00;;;2.03;;
29848;SDS011;16728;50.832;5.590;2023-04-25T15:57:17;7.83;;;1.90;;
29848;SDS011;16728;50.832;5.590;2023-04-25T16:00:19;3.33;;;1.83;;
29848;SDS011;16728;50.832;5.590;2023-04-25T16:03:24;5.30;;;2.10;;
29848;SDS011;16728;50.832;5.590;2023-04-25T16:06:29;6.00;;;2.50;;
29848;SDS011;16728;50.832;5.590;2023-04-25T16:09:31;6.75;;;1.80;;
29848;SDS011;16728;50.832;5.590;2023-04-25T16:12:36;7.75;;;2.35;;
29848;SDS011;16728;50.832;5.590;2023-04-25T16:15:39;5.03;;;2.08;;
29848;SDS011;16728;50.832;5.590;2023-04-25T16:18:42;4.90;;;1.90;;
29848;SDS011;16728;50.832;5.590;2023-04-25T16:21:44;3.83;;;2.33;;
29848;SDS011;16728;50.832;5.590;2023-04-25T16:24:47;4.75;;;2.00;;
29848;SDS011;16728;50.832;5.590;2023-04-25T16:27:49;9.43;;;2.95;;
29848;SDS011;16728;50.832;5.590;2023-04-25T16:30:52;11.65;;;6.15;;
29848;SDS011;16728;50.832;5.590;2023-04-25T16:33:53;5.20;;;2.17;;
29848;SDS011;16728;50.832;5.590;2023-04-25T16:36:57;6.00;;;2.10;;
29848;SDS011;16728;50.832;5.590;2023-04-25T16:39:59;5.18;;;2.05;;
29848;SDS011;16728;50.832;5.590;2023-04-25T16:43:01;6.25;;;1.85;;
29848;SDS011;16728;50.832;5.590;2023-04-25T16:46:03;4.25;;;1.83;;
29848;SDS011;16728;50.832;5.590;2023-04-25T16:49:06;7.57;;;2.47;;
29848;SDS011;16728;50.832;5.590;2023-04-25T16:52:08;8.98;;;4.95;;
29848;SDS011;16728;50.832;5.590;2023-04-25T16:55:10;5.43;;;1.50;;
29848;SDS011;16728;50.832;5.590;2023-04-25T16:58:12;7.18;;;2.00;;
29848;SDS011;16728;50.832;5.590;2023-04-25T17:01:14;6.40;;;2.22;;
29848;SDS011;16728;50.832;5.590;2023-04-25T17:04:17;9.77;;;1.80;;
29848;SDS011;16728;50.832;5.590;2023-04-25T17:07:20;3.10;;;1.73;;
29848;SDS011;16728;50.832;5.590;2023-04-25T17:10:24;4.78;;;1.85;;
29848;SDS011;16728;50.832;5.590;2023-04-25T17:13:28;5.25;;;1.77;;
29848;SDS011;16728;50.832;5.590;2023-04-25T17:16:34;3.25;;;1.92;;
29848;SDS011;16728;50.832;5.590;2023-04-25T17:19:39;4.88;;;1.90;;
29848;SDS011;16728;50.832;5.590;2023-04-25T17:22:41;5.95;;;2.42;;
29848;SDS011;16728;50.832;5.590;2023-04-25T17:25:44;4.50;;;1.67;;
29848;SDS011;16728;50.832;5.590;2023-04-25T17:28:46;4.30;;;1.83;;
29848;SDS011;16728;50.832;5.590;2023-04-25T17:31:55;7.57;;;1.85;;
29848;SDS011;16728;50.832;5.590;2023-04-25T17:34:57;5.30;;;1.83;;
29848;SDS011;16728;50.832;5.590;2023-04-25T17:38:00;4.20;;;1.60;;
29848;SDS011;16728;50.832;5.590;2023-04-25T17:41:02;7.32;;;1.98;;
29848;SDS011;16728;50.832;5.590;2023-04-25T17:44:07;5.68;;;1.45;;
29848;SDS011;16728;50.832;5.590;2023-04-25T17:47:09;4.07;;;1.52;;
29848;SDS011;16728;50.832;5.590;2023-04-25T17:53:16;3.05;;;1.50;;
29848;SDS011;16728;50.832;5.590;2023-04-25T17:56:18;5.35;;;1.73;;
29848;SDS011;16728;50.832;5.590;2023-04-25T17:59:27;2.78;;;1.60;;
29848;SDS011;16728;50.832;5.590;2023-04-25T18:02:38;9.55;;;2.20;;
29848;SDS011;16728;50.832;5.590;2023-04-25T18:05:41;5.80;;;1.90;;
29848;SDS011;16728;50.832;5.590;2023-04-25T18:08:45;3.03;;;1.60;;
29848;SDS011;16728;50.832;5.590;2023-04-25T18:11:47;6.53;;;2.15;;
29848;SDS011;16728;50.832;5.590;2023-04-25T18:14:53;12.75;;;2.72;;
29848;SDS011;16728;50.832;5.590;2023-04-25T18:17:55;7.97;;;2.13;;
29848;SDS011;16728;50.832;5.590;2023-04-25T18:21:00;6.07;;;2.67;;
29848;SDS011;16728;50.832;5.590;2023-04-25T18:24:04;14.15;;;5.47;;
29848;SDS011;16728;50.832;5.590;2023-04-25T18:27:11;15.75;;;5.82;;
29848;SDS011;16728;50.832;5.590;2023-04-25T18:30:13;11.98;;;5.20;;
29848;SDS011;16728;50.832;5.590;2023-04-25T18:33:15;6.80;;;1.83;;
29848;SDS011;16728;50.832;5.590;2023-04-25T18:36:21;6.45;;;2.22;;
29848;SDS011;16728;50.832;5.590;2023-04-25T18:39:24;5.15;;;1.88;;
29848;SDS011;16728;50.832;5.590;2023-04-25T18:42:27;6.25;;;1.80;;
29848;SDS011;16728;50.832;5.590;2023-04-25T18:45:29;8.00;;;1.67;;